< < Back
Terminal Aerodrome Forecast


Current Version              Previous Versions:   1  2  3  4  5  6  7  8  9  

Terminal Aerodrome Forecast

889
FTUS42 KMLB 261120
TAFDAB
TAF
KDAB 261120Z 2612/2712 VRB04KT P6SM FEW025 FEW120 BKN250
     FM261700 07008KT P6SM VCTS SCT030CB BKN100
     FM262000 10008KT P6SM SCT030 BKN200
     FM270000 VRB03KT P6SM FEW030 SCT120 BKN250=

Latest METAR

099
SAUS80 KWBC 270500 CCA
MTRDAB
METAR KDAB 270453Z 22004KT 10SM FEW035 FEW250 23/22 A2995 RMK AO2 SLP139
OCNL LTGIC DSNT NE CB DSNT NE T02280217 403220222 $


USA.gov is the U.S. government's official web portal to all federal, state and local government web resources and services.